createdAt,value
2023-05-05T00:02:18.934Z,58.68
2023-05-05T00:04:47.410Z,59.95
2023-05-05T00:07:15.273Z,58.81
2023-05-05T00:09:44.536Z,58.08
2023-05-05T00:12:12.327Z,58.28
2023-05-05T00:14:40.269Z,61.16
2023-05-05T00:17:09.584Z,59.99
2023-05-05T00:19:37.658Z,59.41
2023-05-05T00:22:06.009Z,58.40
2023-05-05T00:24:33.938Z,59.58
2023-05-05T00:27:02.145Z,58.76
2023-05-05T00:29:30.049Z,58.69
2023-05-05T00:31:57.987Z,58.66
2023-05-05T00:34:27.346Z,58.55
2023-05-05T00:36:55.342Z,58.41
2023-05-05T00:39:23.466Z,58.76
2023-05-05T00:41:51.629Z,59.50
2023-05-05T00:44:19.526Z,59.13
2023-05-05T00:46:47.546Z,58.59
2023-05-05T00:49:16.351Z,58.66
2023-05-05T00:51:45.701Z,57.77
2023-05-05T00:54:13.638Z,58.36
2023-05-05T00:56:41.950Z,59.01
2023-05-05T00:59:09.957Z,59.30
2023-05-05T01:01:37.859Z,61.00
2023-05-05T01:04:05.861Z,61.62
2023-05-05T01:06:48.508Z,60.76
2023-05-05T01:09:27.441Z,60.76
2023-05-05T01:12:03.662Z,62.02
2023-05-05T01:14:40.841Z,61.79
2023-05-05T01:17:17.422Z,63.05
2023-05-05T01:20:02.208Z,62.87
2023-05-05T01:22:37.485Z,64.01
2023-05-05T01:25:32.054Z,64.08
2023-05-05T01:28:25.430Z,64.63
2023-05-05T01:31:10.026Z,64.19
2023-05-05T01:33:46.935Z,65.18
2023-05-05T01:36:23.546Z,65.53
2023-05-05T01:38:57.320Z,66.00
2023-05-05T01:41:29.627Z,66.83
2023-05-05T01:44:01.462Z,66.35
2023-05-05T01:46:30.622Z,66.64
2023-05-05T01:49:00.198Z,67.39
2023-05-05T01:51:29.374Z,67.23
2023-05-05T01:54:00.013Z,66.52
2023-05-05T01:56:29.385Z,66.94
2023-05-05T01:58:58.109Z,67.28
2023-05-05T02:01:27.978Z,67.60
2023-05-05T02:03:57.430Z,69.33
2023-05-05T02:06:30.345Z,70.21
2023-05-05T02:08:59.407Z,70.39
2023-05-05T02:11:29.087Z,70.43
2023-05-05T02:13:59.927Z,71.20
2023-05-05T02:16:31.123Z,71.71
2023-05-05T02:19:04.706Z,71.31
2023-05-05T02:21:34.873Z,71.45
2023-05-05T02:24:04.604Z,71.90
2023-05-05T02:26:37.151Z,71.81
2023-05-05T02:29:08.436Z,71.78
2023-05-05T02:31:41.135Z,71.71
2023-05-05T02:34:09.889Z,72.22
2023-05-05T02:36:42.381Z,72.15
2023-05-05T02:39:15.491Z,73.04
2023-05-05T02:41:47.563Z,72.59
2023-05-05T02:44:25.839Z,73.00
2023-05-05T02:46:55.528Z,73.85
2023-05-05T02:49:24.787Z,74.82
2023-05-05T02:51:59.374Z,74.89
2023-05-05T02:54:32.733Z,74.34
2023-05-05T02:57:02.805Z,75.92
2023-05-05T02:59:42.527Z,75.70
2023-05-05T03:02:18.663Z,75.74
2023-05-05T03:04:50.361Z,76.44
2023-05-05T03:07:26.251Z,76.40
2023-05-05T03:10:04.306Z,76.52
2023-05-05T03:12:40.021Z,76.01
2023-05-05T03:15:17.017Z,76.40
2023-05-05T03:17:46.350Z,76.51
2023-05-05T03:20:16.076Z,77.21
2023-05-05T03:22:49.518Z,76.54
2023-05-05T03:25:17.716Z,75.90
2023-05-05T03:27:45.723Z,75.52
2023-05-05T03:30:16.411Z,75.80
2023-05-05T03:32:50.066Z,77.98
2023-05-05T03:35:18.562Z,77.85
2023-05-05T03:37:46.561Z,77.54
2023-05-05T03:40:19.162Z,77.84
2023-05-05T03:42:47.301Z,78.33
2023-05-05T03:45:15.269Z,78.37
2023-05-05T03:47:43.226Z,78.87
2023-05-05T03:50:11.858Z,79.42
2023-05-05T03:52:40.804Z,79.79
2023-05-05T03:55:10.576Z,79.51
2023-05-05T03:57:39.846Z,79.33
2023-05-05T04:00:10.801Z,79.17
2023-05-05T04:02:42.429Z,79.18
2023-05-05T04:05:13.231Z,78.49
2023-05-05T04:07:41.268Z,79.10
2023-05-05T04:10:10.329Z,78.86
2023-05-05T04:12:40.383Z,78.86
2023-05-05T04:15:09.356Z,78.96
2023-05-05T04:17:37.952Z,78.77
2023-05-05T04:20:07.413Z,78.99
2023-05-05T04:22:35.494Z,79.65
2023-05-05T04:25:03.664Z,80.28
2023-05-05T04:27:31.593Z,80.13
2023-05-05T04:30:02.493Z,80.49
2023-05-05T04:32:32.533Z,80.36
2023-05-05T04:35:00.855Z,80.27
2023-05-05T04:37:29.170Z,79.93
2023-05-05T04:39:59.640Z,78.61
2023-05-05T04:42:28.378Z,79.16
2023-05-05T04:44:56.548Z,77.94
2023-05-05T04:47:26.295Z,77.20
2023-05-05T04:49:55.990Z,77.13
2023-05-05T04:52:24.153Z,77.08
2023-05-05T04:54:52.763Z,76.54
2023-05-05T04:57:20.752Z,75.91
2023-05-05T04:59:48.639Z,75.60
2023-05-05T05:02:16.473Z,76.23
2023-05-05T05:04:45.762Z,75.40
2023-05-05T05:07:14.975Z,74.54
2023-05-05T05:09:42.930Z,74.19
2023-05-05T05:12:10.811Z,73.45
2023-05-05T05:14:39.056Z,73.08
2023-05-05T05:17:07.105Z,73.23
2023-05-05T05:19:35.655Z,73.49
2023-05-05T05:22:05.220Z,73.11
2023-05-05T05:24:36.449Z,73.08
2023-05-05T05:27:09.828Z,73.10
2023-05-05T05:29:38.958Z,73.58
2023-05-05T05:32:07.098Z,74.11
2023-05-05T05:34:35.845Z,74.38
2023-05-05T05:37:06.472Z,73.82
2023-05-05T05:39:34.601Z,74.96
2023-05-05T05:42:03.579Z,74.79
2023-05-05T05:44:32.721Z,73.16
2023-05-05T05:47:00.613Z,72.73
2023-05-05T05:49:29.083Z,70.95
2023-05-05T05:51:57.174Z,70.01
2023-05-05T05:54:26.763Z,68.84
2023-05-05T05:56:54.689Z,67.87
2023-05-05T05:59:22.913Z,66.94
2023-05-05T06:01:50.918Z,67.01
2023-05-05T06:04:18.815Z,68.55
2023-05-05T06:06:46.832Z,68.51
2023-05-05T06:09:14.987Z,69.06
2023-05-05T06:11:44.713Z,67.69
2023-05-05T06:14:12.712Z,68.14
2023-05-05T06:16:40.630Z,68.29
2023-05-05T06:19:12.656Z,67.14
2023-05-05T06:21:40.813Z,66.75
2023-05-05T06:24:08.817Z,65.34
2023-05-05T06:26:36.998Z,66.12
2023-05-05T06:29:06.674Z,65.41
2023-05-05T06:31:34.604Z,64.68
2023-05-05T06:34:02.930Z,63.26
2023-05-05T06:36:31.995Z,62.18
2023-05-05T06:38:59.954Z,62.84
2023-05-05T06:41:27.821Z,60.93
2023-05-05T06:43:55.648Z,60.33
2023-05-05T06:46:24.981Z,60.41
2023-05-05T06:48:52.990Z,60.51
2023-05-05T06:51:20.941Z,59.12
2023-05-05T06:53:48.915Z,59.00
2023-05-05T06:56:17.162Z,57.34
2023-05-05T06:58:45.056Z,57.60
2023-05-05T07:01:13.218Z,58.91
2023-05-05T07:03:42.644Z,56.90
2023-05-05T07:06:11.311Z,55.88
2023-05-05T07:08:39.235Z,56.58
2023-05-05T07:11:07.188Z,57.25
2023-05-05T07:13:35.114Z,57.71
2023-05-05T07:16:03.617Z,55.69
2023-05-05T07:18:31.486Z,56.25
2023-05-05T07:21:01.376Z,57.13
2023-05-05T07:23:29.295Z,57.33
2023-05-05T07:25:57.190Z,58.12
2023-05-05T07:28:25.225Z,58.64
2023-05-05T07:30:53.226Z,59.33
2023-05-05T07:33:21.270Z,58.76
2023-05-05T07:35:49.234Z,58.47
2023-05-05T07:38:18.525Z,59.79
2023-05-05T07:40:46.539Z,58.57
2023-05-05T07:43:14.436Z,60.44
2023-05-05T07:45:42.559Z,60.30
2023-05-05T07:48:10.852Z,60.27
2023-05-05T07:50:38.914Z,58.83
2023-05-05T07:53:14.378Z,59.97
2023-05-05T07:55:44.399Z,57.90
2023-05-05T07:58:12.385Z,59.08
2023-05-05T08:00:40.913Z,57.35
2023-05-05T08:03:11.373Z,55.46
2023-05-05T08:05:40.643Z,55.14
2023-05-05T08:08:08.708Z,56.46
2023-05-05T08:10:37.246Z,57.14
2023-05-05T08:13:06.719Z,54.95
2023-05-05T08:15:34.736Z,54.05
2023-05-05T08:18:02.629Z,51.26
2023-05-05T08:20:30.883Z,50.14
2023-05-05T08:22:58.718Z,51.61
2023-05-05T08:25:27.456Z,50.91
2023-05-05T08:27:55.666Z,49.17
2023-05-05T08:30:25.010Z,49.11
2023-05-05T08:32:53.019Z,47.67
2023-05-05T08:35:21.015Z,46.27
2023-05-05T08:37:49.046Z,45.60
2023-05-05T08:40:16.967Z,45.45
2023-05-05T08:42:46.361Z,46.04
2023-05-05T08:45:14.350Z,45.78
2023-05-05T08:47:44.186Z,46.04
2023-05-05T08:50:13.158Z,44.65
2023-05-05T08:52:44.106Z,47.71
2023-05-05T08:55:19.076Z,45.07
2023-05-05T08:57:51.547Z,43.90
2023-05-05T09:00:20.791Z,43.15
2023-05-05T09:02:50.305Z,43.73
2023-05-05T09:05:19.281Z,41.88
2023-05-05T09:07:47.625Z,41.95
2023-05-05T09:10:16.009Z,42.59
2023-05-05T09:12:44.318Z,43.61
2023-05-05T09:15:14.030Z,42.64
2023-05-05T09:17:43.059Z,41.69
2023-05-05T09:20:14.599Z,40.35
2023-05-05T09:22:44.135Z,40.21
2023-05-05T09:25:13.956Z,38.33
2023-05-05T09:27:43.769Z,39.40
2023-05-05T09:30:13.132Z,39.18
2023-05-05T09:32:46.125Z,37.88
2023-05-05T09:35:16.249Z,38.30
2023-05-05T09:37:44.584Z,37.63
2023-05-05T09:40:14.825Z,36.51
2023-05-05T09:42:44.323Z,37.19
2023-05-05T09:45:27.965Z,35.93
2023-05-05T09:47:59.587Z,35.27
2023-05-05T09:50:32.621Z,37.59
2023-05-05T09:53:02.486Z,33.19
2023-05-05T09:55:31.941Z,34.90
2023-05-05T09:58:18.436Z,33.98
2023-05-05T10:00:47.502Z,34.51
2023-05-05T10:03:15.381Z,36.66
2023-05-05T10:05:51.693Z,35.99
2023-05-05T10:08:21.961Z,33.74
2023-05-05T10:10:54.516Z,34.45
2023-05-05T10:13:24.033Z,33.30
2023-05-05T10:15:53.365Z,35.23
2023-05-05T10:18:23.236Z,33.54
2023-05-05T10:20:58.714Z,33.02
2023-05-05T10:23:31.625Z,31.95
2023-05-05T10:26:03.663Z,33.79
2023-05-05T10:28:35.267Z,34.21
2023-05-05T10:31:12.796Z,34.21
2023-05-05T10:33:54.303Z,34.27
2023-05-05T10:36:24.302Z,33.90
2023-05-05T10:38:56.268Z,36.52
2023-05-05T10:41:25.781Z,36.32
2023-05-05T10:43:56.444Z,34.47
2023-05-05T10:46:25.302Z,33.29
2023-05-05T10:49:01.185Z,32.12
2023-05-05T10:51:42.096Z,33.73
2023-05-05T10:54:17.011Z,31.75
2023-05-05T10:56:45.086Z,32.71
2023-05-05T10:59:42.365Z,32.95
2023-05-05T11:02:24.542Z,36.60
2023-05-05T11:05:10.224Z,37.27
2023-05-05T11:07:39.771Z,38.88
2023-05-05T11:10:09.009Z,38.18
2023-05-05T11:13:10.397Z,38.40
2023-05-05T11:15:38.856Z,39.09
2023-05-05T11:18:08.184Z,39.72
2023-05-05T11:21:24.948Z,40.58
2023-05-05T11:23:54.186Z,38.96
2023-05-05T11:26:52.411Z,39.88
2023-05-05T11:29:20.328Z,39.68
2023-05-05T11:32:15.574Z,41.95
2023-05-05T11:34:50.782Z,42.57
2023-05-05T11:37:18.778Z,42.66
2023-05-05T11:40:01.390Z,48.93
2023-05-05T11:42:30.318Z,59.55
2023-05-05T11:44:58.850Z,66.93
2023-05-05T11:47:29.404Z,68.09
2023-05-05T11:49:57.588Z,70.80
2023-05-05T11:52:27.562Z,73.51
2023-05-05T11:55:02.104Z,74.94
2023-05-05T11:57:31.091Z,75.65
2023-05-05T12:00:01.592Z,75.91
2023-05-05T12:02:32.825Z,75.29
2023-05-05T12:05:01.805Z,73.03
2023-05-05T12:07:32.156Z,73.83
2023-05-05T12:10:01.955Z,74.76
2023-05-05T12:12:37.913Z,71.65
2023-05-05T12:15:07.042Z,72.42
2023-05-05T12:17:41.145Z,68.49
2023-05-05T12:20:11.003Z,66.84
2023-05-05T12:22:39.659Z,61.71
2023-05-05T12:25:09.953Z,62.68
2023-05-05T12:27:38.604Z,59.99
2023-05-05T12:30:15.533Z,61.14
2023-05-05T12:32:44.109Z,57.50
2023-05-05T12:35:13.595Z,57.58
2023-05-05T12:37:42.131Z,58.41
2023-05-05T12:40:48.198Z,57.97
2023-05-05T12:43:29.605Z,57.57
2023-05-05T12:46:05.465Z,62.18
2023-05-05T12:48:33.819Z,60.50
2023-05-05T12:51:15.379Z,59.47
2023-05-05T12:53:43.426Z,58.39
2023-05-05T12:56:32.277Z,59.38
2023-05-05T12:59:00.863Z,56.05
2023-05-05T13:01:29.055Z,55.83
2023-05-05T13:04:07.917Z,55.92
2023-05-05T13:06:36.071Z,55.55
2023-05-05T13:09:04.072Z,57.04
2023-05-05T13:11:35.982Z,56.07
2023-05-05T13:14:04.032Z,56.65
2023-05-05T13:16:32.079Z,55.72
2023-05-05T13:18:59.887Z,58.18
2023-05-05T13:21:28.045Z,57.63
2023-05-05T13:24:04.926Z,56.30
2023-05-05T13:26:41.567Z,54.99
2023-05-05T13:29:09.415Z,54.38
2023-05-05T13:31:37.280Z,53.69
2023-05-05T13:34:05.082Z,53.97
2023-05-05T13:36:33.025Z,54.24
2023-05-05T13:39:00.985Z,56.09
2023-05-05T13:41:28.977Z,57.20
2023-05-05T13:43:58.187Z,57.01
2023-05-05T13:46:26.046Z,57.51
2023-05-05T13:48:56.642Z,58.45
2023-05-05T13:51:24.861Z,58.34
2023-05-05T13:53:53.039Z,59.69
2023-05-05T13:56:23.396Z,60.42
2023-05-05T13:58:51.239Z,60.63
2023-05-05T14:01:20.452Z,60.79
2023-05-05T14:03:48.296Z,58.84
2023-05-05T14:06:16.398Z,60.77
2023-05-05T14:08:44.419Z,61.49
2023-05-05T14:11:13.702Z,60.79
2023-05-05T14:13:41.622Z,60.05
2023-05-05T14:16:09.468Z,60.14
2023-05-05T14:18:38.829Z,59.42
2023-05-05T14:21:06.650Z,59.45
2023-05-05T14:23:34.550Z,59.20
2023-05-05T14:26:02.612Z,58.92
2023-05-05T14:28:30.670Z,60.72
2023-05-05T14:30:58.630Z,61.08
2023-05-05T14:33:26.581Z,60.93
2023-05-05T14:35:56.636Z,62.01
2023-05-05T14:38:24.780Z,61.63
2023-05-05T14:40:52.708Z,63.34
2023-05-05T14:43:20.738Z,66.26
2023-05-05T14:45:48.684Z,66.46
2023-05-05T14:48:16.667Z,67.37
2023-05-05T14:50:46.362Z,67.81
2023-05-05T14:53:15.716Z,64.88
2023-05-05T14:55:44.436Z,64.83
2023-05-05T14:58:12.394Z,65.41
2023-05-05T15:00:40.246Z,64.91
2023-05-05T15:03:08.325Z,64.06
2023-05-05T15:05:36.390Z,61.41
2023-05-05T15:08:04.277Z,61.67
2023-05-05T15:10:33.497Z,62.94
2023-05-05T15:13:01.350Z,62.67
2023-05-05T15:15:29.268Z,63.15
2023-05-05T15:17:57.182Z,63.26
2023-05-05T15:20:25.145Z,64.05
2023-05-05T15:22:52.938Z,67.48
2023-05-05T15:25:21.027Z,69.92
2023-05-05T15:27:50.539Z,71.88
2023-05-05T15:30:18.487Z,77.13
2023-05-05T15:32:46.387Z,83.50
2023-05-05T15:35:14.275Z,84.23
2023-05-05T15:37:42.488Z,80.41
2023-05-05T15:40:11.216Z,86.20
2023-05-05T15:42:39.080Z,85.30
2023-05-05T15:45:12.021Z,90.34
2023-05-05T15:47:39.879Z,93.63
2023-05-05T15:50:08.780Z,95.08
2023-05-05T15:52:36.600Z,97.41
2023-05-05T15:55:04.771Z,96.65
2023-05-05T15:57:32.631Z,98.40
2023-05-05T16:00:01.118Z,94.85
2023-05-05T16:02:30.445Z,94.00
2023-05-05T16:04:58.274Z,96.39
2023-05-05T16:07:26.909Z,91.85
2023-05-05T16:09:55.028Z,95.67
2023-05-05T16:12:22.947Z,95.68
2023-05-05T16:14:50.939Z,93.79
2023-05-05T16:17:20.343Z,94.83
2023-05-05T16:19:50.941Z,95.45
2023-05-05T16:22:20.747Z,97.70
2023-05-05T16:24:48.778Z,94.03
2023-05-05T16:27:16.894Z,94.20
2023-05-05T16:29:44.728Z,95.28
2023-05-05T16:32:12.589Z,98.15
2023-05-05T16:34:40.584Z,98.87
2023-05-05T16:37:09.797Z,99.09
2023-05-05T16:39:40.813Z,98.21
2023-05-05T16:42:08.844Z,93.80
2023-05-05T16:44:36.726Z,93.64
2023-05-05T16:47:04.620Z,95.65
2023-05-05T16:49:32.533Z,95.66
2023-05-05T16:52:00.572Z,96.67
2023-05-05T16:54:29.905Z,95.95
2023-05-05T16:56:58.161Z,96.16
2023-05-05T16:59:26.156Z,95.56
2023-05-05T17:01:54.024Z,96.17
2023-05-05T17:04:21.863Z,94.27
2023-05-05T17:06:49.675Z,93.53
2023-05-05T17:09:17.532Z,94.25
2023-05-05T17:11:46.700Z,93.22
2023-05-05T17:14:14.682Z,93.86
2023-05-05T17:16:42.600Z,98.07
2023-05-05T17:19:10.512Z,98.24
2023-05-05T17:21:38.361Z,97.09
2023-05-05T17:24:08.478Z,96.78
2023-05-05T17:26:36.746Z,98.32
2023-05-05T17:29:06.286Z,95.98
2023-05-05T17:31:34.352Z,95.82
2023-05-05T17:34:02.498Z,96.31
2023-05-05T17:36:30.548Z,96.78
2023-05-05T17:38:58.369Z,97.86
2023-05-05T17:41:27.281Z,97.88
2023-05-05T17:43:55.803Z,96.20
2023-05-05T17:46:25.159Z,95.34
2023-05-05T17:48:53.232Z,95.08
2023-05-05T17:51:21.262Z,97.12
2023-05-05T17:53:49.149Z,97.80
2023-05-05T17:56:17.131Z,100.00
2023-05-05T17:58:44.959Z,100.00
2023-05-05T18:01:22.135Z,99.84
2023-05-05T18:03:51.436Z,99.54
2023-05-05T18:06:19.577Z,99.53
2023-05-05T18:08:47.632Z,100.00
2023-05-05T18:11:15.638Z,100.00
2023-05-05T18:13:43.826Z,100.00
2023-05-05T18:16:11.650Z,100.00
2023-05-05T18:18:40.535Z,100.00
2023-05-05T18:21:12.047Z,100.00
2023-05-05T18:23:40.155Z,100.00
2023-05-05T18:26:08.671Z,100.00
2023-05-05T18:28:38.090Z,100.00
2023-05-05T18:31:06.195Z,100.00
2023-05-05T18:33:34.180Z,100.00
2023-05-05T18:36:03.616Z,100.00
2023-05-05T18:38:33.474Z,100.00
2023-05-05T18:41:01.407Z,100.00
2023-05-05T18:43:29.632Z,100.00
2023-05-05T18:45:57.506Z,100.00
2023-05-05T18:48:26.168Z,100.00
2023-05-05T18:50:54.004Z,100.00
2023-05-05T18:53:22.279Z,100.00
2023-05-05T18:55:51.501Z,100.00
2023-05-05T18:58:19.371Z,100.00
2023-05-05T19:00:47.237Z,100.00
2023-05-05T19:03:15.113Z,100.00
2023-05-05T19:05:42.984Z,100.00
2023-05-05T19:08:11.097Z,100.00
2023-05-05T19:10:39.087Z,100.00
2023-05-05T19:13:09.241Z,100.00
2023-05-05T19:15:37.087Z,100.00
2023-05-05T19:18:06.425Z,100.00
2023-05-05T19:20:34.451Z,100.00
2023-05-05T19:23:04.451Z,100.00
2023-05-05T19:25:32.653Z,100.00
2023-05-05T19:28:00.666Z,100.00
2023-05-05T19:30:30.017Z,100.00
2023-05-05T19:32:57.964Z,100.00
2023-05-05T19:35:26.108Z,100.00
2023-05-05T19:37:53.962Z,100.00
2023-05-05T19:40:22.417Z,100.00
2023-05-05T19:42:50.311Z,100.00
2023-05-05T19:45:18.483Z,100.00
2023-05-05T19:47:48.109Z,100.00
2023-05-05T19:50:16.652Z,100.00
2023-05-05T19:52:44.557Z,100.00
2023-05-05T19:55:13.237Z,100.00
2023-05-05T19:57:41.728Z,100.00
2023-05-05T20:00:11.854Z,100.00
2023-05-05T20:02:39.896Z,100.00
2023-05-05T20:05:13.758Z,100.00
2023-05-05T20:07:42.769Z,100.00
2023-05-05T20:10:13.017Z,100.00
2023-05-05T20:12:47.855Z,100.00
2023-05-05T20:15:18.680Z,100.00
2023-05-05T20:17:47.836Z,100.00
2023-05-05T20:20:20.072Z,100.00
2023-05-05T20:22:48.586Z,100.00
2023-05-05T20:25:16.900Z,100.00
2023-05-05T20:27:45.949Z,100.00
2023-05-05T20:30:14.440Z,100.00
2023-05-05T20:32:42.455Z,100.00
2023-05-05T20:35:12.754Z,100.00
2023-05-05T20:37:42.234Z,100.00
2023-05-05T20:40:11.472Z,100.00
2023-05-05T20:42:39.592Z,100.00
2023-05-05T20:45:10.501Z,100.00
2023-05-05T20:47:38.395Z,100.00
2023-05-05T20:50:08.014Z,100.00
2023-05-05T20:52:36.150Z,100.00
2023-05-05T20:55:05.929Z,100.00
2023-05-05T20:57:33.846Z,100.00
2023-05-05T21:00:01.742Z,100.00
2023-05-05T21:02:29.746Z,100.00
2023-05-05T21:05:02.453Z,100.00
2023-05-05T21:07:31.133Z,100.00
2023-05-05T21:09:59.095Z,100.00
2023-05-05T21:12:29.600Z,100.00
2023-05-05T21:14:58.717Z,100.00
2023-05-05T21:17:26.888Z,100.00
2023-05-05T21:19:55.396Z,100.00
2023-05-05T21:22:23.601Z,100.00
2023-05-05T21:24:51.503Z,100.00
2023-05-05T21:27:19.471Z,100.00
2023-05-05T21:29:51.472Z,100.00
2023-05-05T21:32:19.366Z,100.00
2023-05-05T21:34:47.268Z,100.00
2023-05-05T21:37:15.070Z,100.00
2023-05-05T21:39:42.873Z,100.00
2023-05-05T21:42:10.727Z,100.00
2023-05-05T21:44:38.776Z,100.00
2023-05-05T21:47:08.237Z,100.00
2023-05-05T21:49:36.067Z,100.00
2023-05-05T21:52:04.118Z,100.00
2023-05-05T21:54:32.090Z,100.00
2023-05-05T21:57:00.185Z,100.00
2023-05-05T21:59:28.060Z,100.00
2023-05-05T22:01:55.947Z,100.00
2023-05-05T22:04:25.183Z,100.00
2023-05-05T22:06:53.236Z,100.00
2023-05-05T22:09:21.088Z,100.00
2023-05-05T22:11:48.971Z,100.00
2023-05-05T22:14:16.966Z,100.00
2023-05-05T22:16:44.996Z,100.00
2023-05-05T22:19:13.136Z,100.00
2023-05-05T22:21:42.366Z,100.00
2023-05-05T22:24:10.295Z,100.00
2023-05-05T22:26:39.804Z,100.00
2023-05-05T22:29:07.625Z,100.00
2023-05-05T22:31:35.744Z,100.00
2023-05-05T22:34:03.720Z,100.00
2023-05-05T22:36:32.293Z,100.00
2023-05-05T22:39:01.497Z,100.00
2023-05-05T22:41:29.303Z,100.00
2023-05-05T22:43:57.464Z,100.00
2023-05-05T22:46:25.357Z,100.00
2023-05-05T22:48:54.148Z,100.00
2023-05-05T22:51:22.262Z,100.00
2023-05-05T22:53:50.184Z,100.00
2023-05-05T22:56:19.380Z,100.00
2023-05-05T22:58:47.582Z,100.00
2023-05-05T23:01:15.516Z,100.00
2023-05-05T23:03:43.363Z,100.00
2023-05-05T23:06:11.217Z,100.00
2023-05-05T23:08:39.009Z,100.00
2023-05-05T23:11:06.909Z,100.00
2023-05-05T23:13:36.119Z,100.00
2023-05-05T23:16:04.062Z,100.00
2023-05-05T23:18:31.852Z,100.00
2023-05-05T23:20:59.714Z,100.00
2023-05-05T23:23:27.610Z,100.00
2023-05-05T23:25:56.007Z,100.00
2023-05-05T23:28:23.909Z,100.00
2023-05-05T23:30:53.148Z,100.00
2023-05-05T23:33:21.019Z,100.00
2023-05-05T23:35:49.142Z,100.00
2023-05-05T23:38:17.130Z,100.00
2023-05-05T23:40:44.963Z,100.00
2023-05-05T23:43:12.928Z,100.00
2023-05-05T23:45:41.036Z,100.00
2023-05-05T23:48:10.525Z,100.00
2023-05-05T23:50:38.425Z,100.00
2023-05-05T23:53:06.355Z,100.00
2023-05-05T23:55:34.269Z,100.00
2023-05-05T23:58:02.028Z,100.00
